sensor_id;sensor_type;location;lat;lon;timestamp;P1;durP1;ratioP1;P2;durP2;ratioP2
19691;SDS011;42748;50.016;19.890;2023-03-26T00:01:28;4.97;;;2.08;;
19691;SDS011;42748;50.016;19.890;2023-03-26T00:03:59;5.07;;;1.90;;
19691;SDS011;42748;50.016;19.890;2023-03-26T00:06:27;3.65;;;1.90;;
19691;SDS011;42748;50.016;19.890;2023-03-26T00:08:56;4.55;;;2.00;;
19691;SDS011;42748;50.016;19.890;2023-03-26T00:11:25;3.88;;;1.92;;
19691;SDS011;42748;50.016;19.890;2023-03-26T00:13:53;4.43;;;1.98;;
19691;SDS011;42748;50.016;19.890;2023-03-26T00:16:26;2.70;;;1.70;;
19691;SDS011;42748;50.016;19.890;2023-03-26T00:18:54;4.30;;;1.90;;
19691;SDS011;42748;50.016;19.890;2023-03-26T00:21:23;4.60;;;1.70;;
19691;SDS011;42748;50.016;19.890;2023-03-26T00:23:57;4.50;;;1.90;;
19691;SDS011;42748;50.016;19.890;2023-03-26T00:26:33;2.00;;;1.30;;
19691;SDS011;42748;50.016;19.890;2023-03-26T00:29:03;3.85;;;1.95;;
19691;SDS011;42748;50.016;19.890;2023-03-26T00:31:30;4.10;;;1.80;;
19691;SDS011;42748;50.016;19.890;2023-03-26T00:33:58;7.07;;;1.75;;
19691;SDS011;42748;50.016;19.890;2023-03-26T00:36:28;3.58;;;1.60;;
19691;SDS011;42748;50.016;19.890;2023-03-26T00:38:56;4.95;;;1.73;;
19691;SDS011;42748;50.016;19.890;2023-03-26T00:41:24;2.63;;;1.75;;
19691;SDS011;42748;50.016;19.890;2023-03-26T00:43:53;5.75;;;1.65;;
19691;SDS011;42748;50.016;19.890;2023-03-26T00:46:22;3.13;;;1.80;;
19691;SDS011;42748;50.016;19.890;2023-03-26T00:48:51;3.03;;;1.70;;
19691;SDS011;42748;50.016;19.890;2023-03-26T00:51:19;4.30;;;2.08;;
19691;SDS011;42748;50.016;19.890;2023-03-26T00:53:47;3.17;;;1.73;;
19691;SDS011;42748;50.016;19.890;2023-03-26T00:56:16;4.70;;;1.80;;
19691;SDS011;42748;50.016;19.890;2023-03-26T00:58:44;5.40;;;1.75;;
19691;SDS011;42748;50.016;19.890;2023-03-26T01:01:14;4.18;;;1.98;;
19691;SDS011;42748;50.016;19.890;2023-03-26T01:03:44;3.90;;;2.03;;
19691;SDS011;42748;50.016;19.890;2023-03-26T01:06:31;2.70;;;1.63;;
19691;SDS011;42748;50.016;19.890;2023-03-26T01:09:12;3.67;;;1.80;;
19691;SDS011;42748;50.016;19.890;2023-03-26T01:11:42;5.63;;;1.77;;
19691;SDS011;42748;50.016;19.890;2023-03-26T01:14:12;4.80;;;1.95;;
19691;SDS011;42748;50.016;19.890;2023-03-26T01:19:14;5.78;;;1.90;;
19691;SDS011;42748;50.016;19.890;2023-03-26T01:21:48;5.22;;;2.03;;
19691;SDS011;42748;50.016;19.890;2023-03-26T01:24:15;3.15;;;1.63;;
19691;SDS011;42748;50.016;19.890;2023-03-26T01:34:57;4.93;;;1.88;;
19691;SDS011;42748;50.016;19.890;2023-03-26T01:37:37;5.10;;;2.10;;
19691;SDS011;42748;50.016;19.890;2023-03-26T01:40:23;7.43;;;2.15;;
19691;SDS011;42748;50.016;19.890;2023-03-26T01:45:50;3.47;;;1.90;;
19691;SDS011;42748;50.016;19.890;2023-03-26T01:48:19;2.80;;;1.60;;
19691;SDS011;42748;50.016;19.890;2023-03-26T01:50:46;2.78;;;1.25;;
19691;SDS011;42748;50.016;19.890;2023-03-26T01:53:16;3.10;;;1.50;;
19691;SDS011;42748;50.016;19.890;2023-03-26T01:55:53;3.38;;;1.70;;
19691;SDS011;42748;50.016;19.890;2023-03-26T01:59:00;3.00;;;1.80;;
19691;SDS011;42748;50.016;19.890;2023-03-26T02:01:43;3.67;;;2.15;;
19691;SDS011;42748;50.016;19.890;2023-03-26T02:07:08;3.45;;;2.10;;
19691;SDS011;42748;50.016;19.890;2023-03-26T02:10:02;5.95;;;2.38;;
19691;SDS011;42748;50.016;19.890;2023-03-26T02:12:38;5.88;;;2.05;;
19691;SDS011;42748;50.016;19.890;2023-03-26T02:15:07;3.85;;;2.25;;
19691;SDS011;42748;50.016;19.890;2023-03-26T02:17:35;4.32;;;2.22;;
19691;SDS011;42748;50.016;19.890;2023-03-26T02:20:09;5.07;;;1.95;;
19691;SDS011;42748;50.016;19.890;2023-03-26T02:22:40;5.45;;;2.70;;
19691;SDS011;42748;50.016;19.890;2023-03-26T02:25:15;7.28;;;2.42;;
19691;SDS011;42748;50.016;19.890;2023-03-26T02:27:48;4.35;;;2.22;;
19691;SDS011;42748;50.016;19.890;2023-03-26T02:30:21;4.80;;;2.35;;
19691;SDS011;42748;50.016;19.890;2023-03-26T02:32:57;5.68;;;2.35;;
19691;SDS011;42748;50.016;19.890;2023-03-26T02:35:33;4.55;;;2.10;;
19691;SDS011;42748;50.016;19.890;2023-03-26T02:38:01;4.57;;;2.38;;
19691;SDS011;42748;50.016;19.890;2023-03-26T02:40:28;4.38;;;2.42;;
19691;SDS011;42748;50.016;19.890;2023-03-26T02:42:57;6.38;;;2.35;;
19691;SDS011;42748;50.016;19.890;2023-03-26T02:45:26;5.97;;;2.60;;
19691;SDS011;42748;50.016;19.890;2023-03-26T02:48:25;6.55;;;2.60;;
19691;SDS011;42748;50.016;19.890;2023-03-26T02:51:12;7.60;;;2.55;;
19691;SDS011;42748;50.016;19.890;2023-03-26T02:54:02;10.13;;;3.30;;
19691;SDS011;42748;50.016;19.890;2023-03-26T02:56:35;9.00;;;3.80;;
19691;SDS011;42748;50.016;19.890;2023-03-26T02:59:26;11.82;;;3.38;;
19691;SDS011;42748;50.016;19.890;2023-03-26T03:02:16;5.70;;;2.90;;
19691;SDS011;42748;50.016;19.890;2023-03-26T03:04:44;7.03;;;2.67;;
19691;SDS011;42748;50.016;19.890;2023-03-26T03:07:12;4.53;;;2.67;;
19691;SDS011;42748;50.016;19.890;2023-03-26T03:09:40;5.40;;;2.78;;
19691;SDS011;42748;50.016;19.890;2023-03-26T03:12:42;4.72;;;2.58;;
19691;SDS011;42748;50.016;19.890;2023-03-26T03:15:09;6.70;;;3.03;;
19691;SDS011;42748;50.016;19.890;2023-03-26T03:17:37;4.43;;;2.55;;
19691;SDS011;42748;50.016;19.890;2023-03-26T03:20:06;5.07;;;2.60;;
19691;SDS011;42748;50.016;19.890;2023-03-26T03:22:38;4.88;;;2.67;;
19691;SDS011;42748;50.016;19.890;2023-03-26T03:25:06;6.35;;;3.15;;
19691;SDS011;42748;50.016;19.890;2023-03-26T03:27:44;6.40;;;2.58;;
19691;SDS011;42748;50.016;19.890;2023-03-26T03:30:13;5.05;;;2.30;;
19691;SDS011;42748;50.016;19.890;2023-03-26T03:32:58;5.85;;;2.30;;
19691;SDS011;42748;50.016;19.890;2023-03-26T03:35:29;6.32;;;2.38;;
19691;SDS011;42748;50.016;19.890;2023-03-26T03:37:58;4.25;;;2.30;;
19691;SDS011;42748;50.016;19.890;2023-03-26T03:40:29;5.75;;;2.47;;
19691;SDS011;42748;50.016;19.890;2023-03-26T03:42:57;4.25;;;2.22;;
19691;SDS011;42748;50.016;19.890;2023-03-26T03:45:33;3.25;;;1.90;;
19691;SDS011;42748;50.016;19.890;2023-03-26T03:48:27;7.18;;;2.30;;
19691;SDS011;42748;50.016;19.890;2023-03-26T03:50:54;3.88;;;2.20;;
19691;SDS011;42748;50.016;19.890;2023-03-26T03:53:29;5.00;;;1.98;;
19691;SDS011;42748;50.016;19.890;2023-03-26T03:55:58;4.45;;;2.00;;
19691;SDS011;42748;50.016;19.890;2023-03-26T03:58:50;3.75;;;1.83;;
19691;SDS011;42748;50.016;19.890;2023-03-26T04:01:26;3.45;;;2.17;;
19691;SDS011;42748;50.016;19.890;2023-03-26T04:04:08;4.57;;;2.40;;
19691;SDS011;42748;50.016;19.890;2023-03-26T04:06:44;6.22;;;2.40;;
19691;SDS011;42748;50.016;19.890;2023-03-26T04:09:14;4.85;;;2.20;;
19691;SDS011;42748;50.016;19.890;2023-03-26T04:11:44;5.28;;;2.40;;
19691;SDS011;42748;50.016;19.890;2023-03-26T04:14:22;6.00;;;2.38;;
19691;SDS011;42748;50.016;19.890;2023-03-26T04:16:58;6.85;;;2.17;;
19691;SDS011;42748;50.016;19.890;2023-03-26T04:19:28;4.57;;;2.28;;
19691;SDS011;42748;50.016;19.890;2023-03-26T04:21:55;3.70;;;2.17;;
19691;SDS011;42748;50.016;19.890;2023-03-26T04:24:32;4.00;;;2.33;;
19691;SDS011;42748;50.016;19.890;2023-03-26T04:27:19;5.53;;;2.60;;
19691;SDS011;42748;50.016;19.890;2023-03-26T04:30:00;5.60;;;2.42;;
19691;SDS011;42748;50.016;19.890;2023-03-26T04:32:29;6.80;;;2.60;;
19691;SDS011;42748;50.016;19.890;2023-03-26T04:35:01;6.82;;;2.70;;
19691;SDS011;42748;50.016;19.890;2023-03-26T04:37:34;6.97;;;2.75;;
19691;SDS011;42748;50.016;19.890;2023-03-26T04:40:15;5.68;;;2.92;;
19691;SDS011;42748;50.016;19.890;2023-03-26T04:43:04;7.72;;;2.60;;
19691;SDS011;42748;50.016;19.890;2023-03-26T04:45:54;7.00;;;3.00;;
19691;SDS011;42748;50.016;19.890;2023-03-26T04:48:25;7.45;;;2.70;;
19691;SDS011;42748;50.016;19.890;2023-03-26T04:50:52;9.10;;;3.20;;
19691;SDS011;42748;50.016;19.890;2023-03-26T04:53:21;11.98;;;4.25;;
19691;SDS011;42748;50.016;19.890;2023-03-26T04:59:18;11.65;;;2.80;;
19691;SDS011;42748;50.016;19.890;2023-03-26T05:01:56;9.35;;;2.85;;
19691;SDS011;42748;50.016;19.890;2023-03-26T05:04:28;6.32;;;2.40;;
19691;SDS011;42748;50.016;19.890;2023-03-26T05:06:57;4.55;;;2.30;;
19691;SDS011;42748;50.016;19.890;2023-03-26T05:09:40;4.80;;;2.20;;
19691;SDS011;42748;50.016;19.890;2023-03-26T05:12:13;6.18;;;2.35;;
19691;SDS011;42748;50.016;19.890;2023-03-26T05:15:04;5.90;;;2.33;;
19691;SDS011;42748;50.016;19.890;2023-03-26T05:17:46;5.68;;;2.60;;
19691;SDS011;42748;50.016;19.890;2023-03-26T05:20:34;5.68;;;2.50;;
19691;SDS011;42748;50.016;19.890;2023-03-26T05:23:04;7.57;;;3.30;;
19691;SDS011;42748;50.016;19.890;2023-03-26T05:25:36;7.32;;;2.38;;
19691;SDS011;42748;50.016;19.890;2023-03-26T05:28:10;7.28;;;2.35;;
19691;SDS011;42748;50.016;19.890;2023-03-26T05:30:50;5.88;;;2.65;;
19691;SDS011;42748;50.016;19.890;2023-03-26T05:33:21;4.82;;;2.25;;
19691;SDS011;42748;50.016;19.890;2023-03-26T05:35:58;4.15;;;2.28;;
19691;SDS011;42748;50.016;19.890;2023-03-26T05:38:29;4.78;;;2.10;;
19691;SDS011;42748;50.016;19.890;2023-03-26T05:40:58;3.42;;;1.80;;
19691;SDS011;42748;50.016;19.890;2023-03-26T05:43:27;5.70;;;2.10;;
19691;SDS011;42748;50.016;19.890;2023-03-26T05:46:20;5.28;;;2.25;;
19691;SDS011;42748;50.016;19.890;2023-03-26T05:48:48;6.85;;;2.30;;
19691;SDS011;42748;50.016;19.890;2023-03-26T05:51:18;5.22;;;2.28;;
19691;SDS011;42748;50.016;19.890;2023-03-26T05:53:55;8.75;;;2.33;;
19691;SDS011;42748;50.016;19.890;2023-03-26T05:56:51;8.52;;;2.90;;
19691;SDS011;42748;50.016;19.890;2023-03-26T05:59:37;6.35;;;3.00;;
19691;SDS011;42748;50.016;19.890;2023-03-26T06:02:22;9.07;;;2.63;;
19691;SDS011;42748;50.016;19.890;2023-03-26T06:05:17;7.07;;;2.75;;
19691;SDS011;42748;50.016;19.890;2023-03-26T06:08:23;5.10;;;2.20;;
19691;SDS011;42748;50.016;19.890;2023-03-26T06:10:56;5.22;;;2.20;;
19691;SDS011;42748;50.016;19.890;2023-03-26T06:13:31;5.60;;;2.00;;
19691;SDS011;42748;50.016;19.890;2023-03-26T06:15:58;4.05;;;1.90;;
19691;SDS011;42748;50.016;19.890;2023-03-26T06:18:34;4.63;;;1.95;;
19691;SDS011;42748;50.016;19.890;2023-03-26T06:21:27;6.28;;;1.60;;
19691;SDS011;42748;50.016;19.890;2023-03-26T06:24:00;3.47;;;1.73;;
19691;SDS011;42748;50.016;19.890;2023-03-26T06:26:40;3.35;;;1.67;;
19691;SDS011;42748;50.016;19.890;2023-03-26T06:29:18;4.80;;;1.70;;
19691;SDS011;42748;50.016;19.890;2023-03-26T06:32:06;2.65;;;1.45;;
19691;SDS011;42748;50.016;19.890;2023-03-26T06:34:51;4.85;;;1.52;;
19691;SDS011;42748;50.016;19.890;2023-03-26T06:37:19;5.80;;;1.77;;
19691;SDS011;42748;50.016;19.890;2023-03-26T06:39:48;3.83;;;1.60;;
19691;SDS011;42748;50.016;19.890;2023-03-26T06:42:18;4.10;;;1.60;;
19691;SDS011;42748;50.016;19.890;2023-03-26T06:45:14;5.25;;;1.67;;
19691;SDS011;42748;50.016;19.890;2023-03-26T06:48:08;4.50;;;1.55;;
19691;SDS011;42748;50.016;19.890;2023-03-26T06:50:44;3.30;;;1.40;;
19691;SDS011;42748;50.016;19.890;2023-03-26T06:53:50;8.52;;;1.75;;
19691;SDS011;42748;50.016;19.890;2023-03-26T06:56:53;4.25;;;1.70;;
19691;SDS011;42748;50.016;19.890;2023-03-26T06:59:23;5.45;;;2.00;;
19691;SDS011;42748;50.016;19.890;2023-03-26T07:02:09;4.15;;;1.77;;
19691;SDS011;42748;50.016;19.890;2023-03-26T07:04:55;4.20;;;1.85;;
19691;SDS011;42748;50.016;19.890;2023-03-26T07:07:40;4.57;;;1.67;;
19691;SDS011;42748;50.016;19.890;2023-03-26T07:10:31;6.18;;;2.13;;
19691;SDS011;42748;50.016;19.890;2023-03-26T07:13:19;7.20;;;1.95;;
19691;SDS011;42748;50.016;19.890;2023-03-26T07:16:22;4.30;;;1.90;;
19691;SDS011;42748;50.016;19.890;2023-03-26T07:19:05;5.00;;;1.60;;
19691;SDS011;42748;50.016;19.890;2023-03-26T07:21:35;3.92;;;1.65;;
19691;SDS011;42748;50.016;19.890;2023-03-26T07:24:12;4.45;;;1.45;;
19691;SDS011;42748;50.016;19.890;2023-03-26T07:29:56;3.08;;;1.65;;
19691;SDS011;42748;50.016;19.890;2023-03-26T07:35:40;5.05;;;1.40;;
19691;SDS011;42748;50.016;19.890;2023-03-26T07:38:54;2.67;;;1.13;;
19691;SDS011;42748;50.016;19.890;2023-03-26T07:42:22;3.75;;;1.30;;
19691;SDS011;42748;50.016;19.890;2023-03-26T07:48:04;4.38;;;1.27;;
19691;SDS011;42748;50.016;19.890;2023-03-26T07:51:00;3.88;;;1.55;;
19691;SDS011;42748;50.016;19.890;2023-03-26T07:53:47;5.03;;;1.30;;
19691;SDS011;42748;50.016;19.890;2023-03-26T07:56:37;3.20;;;1.25;;
19691;SDS011;42748;50.016;19.890;2023-03-26T08:23:01;2.78;;;1.10;;
19691;SDS011;42748;50.016;19.890;2023-03-26T08:31:16;7.50;;;1.77;;
19691;SDS011;42748;50.016;19.890;2023-03-26T08:33:44;3.75;;;1.60;;
19691;SDS011;42748;50.016;19.890;2023-03-26T08:36:12;4.72;;;1.58;;
19691;SDS011;42748;50.016;19.890;2023-03-26T08:38:40;4.82;;;1.40;;
19691;SDS011;42748;50.016;19.890;2023-03-26T09:42:41;5.93;;;1.23;;
19691;SDS011;42748;50.016;19.890;2023-03-26T09:53:50;2.90;;;1.58;;
19691;SDS011;42748;50.016;19.890;2023-03-26T09:59:42;4.10;;;1.50;;
19691;SDS011;42748;50.016;19.890;2023-03-26T10:07:58;4.28;;;1.30;;
19691;SDS011;42748;50.016;19.890;2023-03-26T10:24:21;2.55;;;1.10;;
19691;SDS011;42748;50.016;19.890;2023-03-26T10:32:45;3.50;;;1.33;;
19691;SDS011;42748;50.016;19.890;2023-03-26T10:38:53;3.42;;;1.55;;
19691;SDS011;42748;50.016;19.890;2023-03-26T10:44:23;3.15;;;1.20;;
19691;SDS011;42748;50.016;19.890;2023-03-26T10:50:53;3.78;;;1.08;;
19691;SDS011;42748;50.016;19.890;2023-03-26T10:53:53;2.38;;;1.00;;
19691;SDS011;42748;50.016;19.890;2023-03-26T10:56:35;3.05;;;1.40;;
19691;SDS011;42748;50.016;19.890;2023-03-26T10:59:11;3.63;;;1.33;;
19691;SDS011;42748;50.016;19.890;2023-03-26T11:07:39;2.45;;;1.10;;
19691;SDS011;42748;50.016;19.890;2023-03-26T11:10:24;3.45;;;0.90;;
19691;SDS011;42748;50.016;19.890;2023-03-26T11:21:17;5.90;;;1.50;;
19691;SDS011;42748;50.016;19.890;2023-03-26T11:32:15;2.60;;;1.10;;
19691;SDS011;42748;50.016;19.890;2023-03-26T11:34:58;2.45;;;1.40;;
19691;SDS011;42748;50.016;19.890;2023-03-26T11:37:37;2.33;;;1.08;;
19691;SDS011;42748;50.016;19.890;2023-03-26T11:40:15;2.13;;;0.90;;
19691;SDS011;42748;50.016;19.890;2023-03-26T11:42:50;1.08;;;0.70;;
19691;SDS011;42748;50.016;19.890;2023-03-26T11:45:23;3.25;;;0.90;;
19691;SDS011;42748;50.016;19.890;2023-03-26T11:47:55;1.70;;;0.95;;
19691;SDS011;42748;50.016;19.890;2023-03-26T11:50:46;2.47;;;1.05;;
19691;SDS011;42748;50.016;19.890;2023-03-26T11:53:18;2.28;;;1.00;;
19691;SDS011;42748;50.016;19.890;2023-03-26T11:55:58;2.22;;;1.02;;
19691;SDS011;42748;50.016;19.890;2023-03-26T11:58:31;1.35;;;0.93;;
19691;SDS011;42748;50.016;19.890;2023-03-26T12:01:16;2.25;;;1.10;;
19691;SDS011;42748;50.016;19.890;2023-03-26T12:03:55;3.30;;;1.00;;
19691;SDS011;42748;50.016;19.890;2023-03-26T12:06:25;1.13;;;0.80;;
19691;SDS011;42748;50.016;19.890;2023-03-26T12:08:54;3.10;;;1.10;;
19691;SDS011;42748;50.016;19.890;2023-03-26T12:11:25;2.35;;;0.77;;
19691;SDS011;42748;50.016;19.890;2023-03-26T12:14:01;2.70;;;1.10;;
19691;SDS011;42748;50.016;19.890;2023-03-26T12:16:31;2.13;;;0.82;;
19691;SDS011;42748;50.016;19.890;2023-03-26T12:19:03;3.50;;;1.13;;
19691;SDS011;42748;50.016;19.890;2023-03-26T12:21:50;2.63;;;1.00;;
19691;SDS011;42748;50.016;19.890;2023-03-26T12:24:26;5.45;;;1.15;;
19691;SDS011;42748;50.016;19.890;2023-03-26T12:26:59;2.60;;;1.00;;
19691;SDS011;42748;50.016;19.890;2023-03-26T12:29:32;3.08;;;1.20;;
19691;SDS011;42748;50.016;19.890;2023-03-26T12:32:04;2.65;;;1.08;;
19691;SDS011;42748;50.016;19.890;2023-03-26T12:34:38;3.83;;;1.45;;
19691;SDS011;42748;50.016;19.890;2023-03-26T12:37:07;3.88;;;1.60;;
19691;SDS011;42748;50.016;19.890;2023-03-26T12:40:04;4.68;;;1.95;;
19691;SDS011;42748;50.016;19.890;2023-03-26T12:42:57;4.72;;;2.10;;
19691;SDS011;42748;50.016;19.890;2023-03-26T12:45:47;3.97;;;2.00;;
19691;SDS011;42748;50.016;19.890;2023-03-26T12:48:39;4.10;;;1.90;;
19691;SDS011;42748;50.016;19.890;2023-03-26T12:53:50;5.68;;;1.85;;
19691;SDS011;42748;50.016;19.890;2023-03-26T12:56:45;3.15;;;1.20;;
19691;SDS011;42748;50.016;19.890;2023-03-26T13:16:54;3.95;;;1.23;;
19691;SDS011;42748;50.016;19.890;2023-03-26T13:22:45;2.45;;;1.30;;
19691;SDS011;42748;50.016;19.890;2023-03-26T13:28:16;3.72;;;1.55;;
19691;SDS011;42748;50.016;19.890;2023-03-26T13:30:55;2.55;;;1.20;;
19691;SDS011;42748;50.016;19.890;2023-03-26T13:33:32;3.25;;;1.20;;
19691;SDS011;42748;50.016;19.890;2023-03-26T13:39:02;2.58;;;1.08;;
19691;SDS011;42748;50.016;19.890;2023-03-26T13:44:56;3.00;;;1.13;;
19691;SDS011;42748;50.016;19.890;2023-03-26T13:47:37;2.33;;;1.30;;
19691;SDS011;42748;50.016;19.890;2023-03-26T13:50:25;4.40;;;1.35;;
19691;SDS011;42748;50.016;19.890;2023-03-26T13:55:54;2.25;;;1.10;;
19691;SDS011;42748;50.016;19.890;2023-03-26T13:58:30;2.78;;;1.35;;
19691;SDS011;42748;50.016;19.890;2023-03-26T14:48:14;2.35;;;1.40;;
19691;SDS011;42748;50.016;19.890;2023-03-26T14:53:18;3.28;;;1.50;;
19691;SDS011;42748;50.016;19.890;2023-03-26T14:59:02;5.32;;;1.67;;
19691;SDS011;42748;50.016;19.890;2023-03-26T15:43:20;5.05;;;2.08;;
19691;SDS011;42748;50.016;19.890;2023-03-26T15:54:35;5.30;;;1.73;;
19691;SDS011;42748;50.016;19.890;2023-03-26T15:57:15;4.72;;;1.65;;
19691;SDS011;42748;50.016;19.890;2023-03-26T16:08:07;8.68;;;1.58;;
19691;SDS011;42748;50.016;19.890;2023-03-26T16:11:08;3.50;;;1.48;;
19691;SDS011;42748;50.016;19.890;2023-03-26T16:13:41;4.57;;;1.70;;
19691;SDS011;42748;50.016;19.890;2023-03-26T16:16:18;5.78;;;1.60;;
19691;SDS011;42748;50.016;19.890;2023-03-26T16:29:17;4.60;;;2.30;;
19691;SDS011;42748;50.016;19.890;2023-03-26T17:08:43;4.57;;;2.05;;
19691;SDS011;42748;50.016;19.890;2023-03-26T17:11:48;5.05;;;2.25;;
19691;SDS011;42748;50.016;19.890;2023-03-26T17:17:16;5.25;;;2.22;;
19691;SDS011;42748;50.016;19.890;2023-03-26T17:22:40;6.95;;;2.13;;
19691;SDS011;42748;50.016;19.890;2023-03-26T17:25:29;6.43;;;2.42;;
19691;SDS011;42748;50.016;19.890;2023-03-26T17:31:04;5.45;;;2.70;;
19691;SDS011;42748;50.016;19.890;2023-03-26T17:33:43;8.05;;;3.40;;
19691;SDS011;42748;50.016;19.890;2023-03-26T17:41:11;7.15;;;2.63;;
19691;SDS011;42748;50.016;19.890;2023-03-26T17:43:59;7.05;;;2.78;;
19691;SDS011;42748;50.016;19.890;2023-03-26T17:46:38;10.48;;;3.13;;
19691;SDS011;42748;50.016;19.890;2023-03-26T17:51:58;9.88;;;3.15;;
19691;SDS011;42748;50.016;19.890;2023-03-26T17:54:29;13.75;;;3.65;;
19691;SDS011;42748;50.016;19.890;2023-03-26T17:57:14;9.32;;;3.60;;
19691;SDS011;42748;50.016;19.890;2023-03-26T17:59:55;9.73;;;3.75;;
19691;SDS011;42748;50.016;19.890;2023-03-26T18:02:32;8.73;;;3.80;;
19691;SDS011;42748;50.016;19.890;2023-03-26T18:05:03;8.00;;;3.80;;
19691;SDS011;42748;50.016;19.890;2023-03-26T18:08:01;10.40;;;4.05;;
19691;SDS011;42748;50.016;19.890;2023-03-26T18:10:59;9.77;;;4.30;;
19691;SDS011;42748;50.016;19.890;2023-03-26T18:18:58;10.40;;;4.82;;
19691;SDS011;42748;50.016;19.890;2023-03-26T18:24:05;9.38;;;4.43;;
19691;SDS011;42748;50.016;19.890;2023-03-26T18:26:41;13.32;;;4.75;;
19691;SDS011;42748;50.016;19.890;2023-03-26T18:29:56;10.25;;;4.90;;
19691;SDS011;42748;50.016;19.890;2023-03-26T18:32:30;10.05;;;4.60;;
19691;SDS011;42748;50.016;19.890;2023-03-26T18:35:22;9.93;;;4.65;;
19691;SDS011;42748;50.016;19.890;2023-03-26T18:37:50;12.45;;;5.28;;
19691;SDS011;42748;50.016;19.890;2023-03-26T18:40:23;11.93;;;5.28;;
19691;SDS011;42748;50.016;19.890;2023-03-26T18:42:55;12.55;;;5.55;;
19691;SDS011;42748;50.016;19.890;2023-03-26T18:45:33;12.27;;;5.95;;
19691;SDS011;42748;50.016;19.890;2023-03-26T18:50:52;13.40;;;5.03;;
19691;SDS011;42748;50.016;19.890;2023-03-26T18:53:23;14.07;;;5.45;;
19691;SDS011;42748;50.016;19.890;2023-03-26T18:55:57;10.40;;;5.00;;
19691;SDS011;42748;50.016;19.890;2023-03-26T18:58:28;10.82;;;5.20;;
19691;SDS011;42748;50.016;19.890;2023-03-26T19:01:02;14.38;;;5.68;;
19691;SDS011;42748;50.016;19.890;2023-03-26T19:03:38;13.77;;;6.00;;
19691;SDS011;42748;50.016;19.890;2023-03-26T19:06:10;15.13;;;6.18;;
19691;SDS011;42748;50.016;19.890;2023-03-26T19:08:40;12.02;;;6.20;;
19691;SDS011;42748;50.016;19.890;2023-03-26T19:11:10;12.27;;;5.95;;
19691;SDS011;42748;50.016;19.890;2023-03-26T19:13:41;14.07;;;5.80;;
19691;SDS011;42748;50.016;19.890;2023-03-26T19:16:27;12.43;;;5.75;;
19691;SDS011;42748;50.016;19.890;2023-03-26T19:19:00;16.67;;;6.20;;
19691;SDS011;42748;50.016;19.890;2023-03-26T19:21:31;14.77;;;6.05;;
19691;SDS011;42748;50.016;19.890;2023-03-26T19:23:59;14.40;;;6.00;;
19691;SDS011;42748;50.016;19.890;2023-03-26T19:26:28;14.02;;;6.38;;
19691;SDS011;42748;50.016;19.890;2023-03-26T19:28:55;18.23;;;7.05;;
19691;SDS011;42748;50.016;19.890;2023-03-26T19:31:33;17.98;;;6.93;;
19691;SDS011;42748;50.016;19.890;2023-03-26T19:36:48;16.30;;;6.72;;
19691;SDS011;42748;50.016;19.890;2023-03-26T19:39:25;8.10;;;3.47;;
19691;SDS011;42748;50.016;19.890;2023-03-26T19:42:12;10.10;;;3.55;;
19691;SDS011;42748;50.016;19.890;2023-03-26T19:44:43;9.27;;;4.65;;
19691;SDS011;42748;50.016;19.890;2023-03-26T19:47:17;15.50;;;5.95;;
19691;SDS011;42748;50.016;19.890;2023-03-26T19:49:58;12.32;;;5.95;;
19691;SDS011;42748;50.016;19.890;2023-03-26T19:52:33;14.38;;;6.45;;
19691;SDS011;42748;50.016;19.890;2023-03-26T19:55:14;12.93;;;6.18;;
19691;SDS011;42748;50.016;19.890;2023-03-26T19:57:49;13.48;;;6.40;;
19691;SDS011;42748;50.016;19.890;2023-03-26T20:00:17;11.35;;;5.88;;
19691;SDS011;42748;50.016;19.890;2023-03-26T20:02:44;13.07;;;6.30;;
19691;SDS011;42748;50.016;19.890;2023-03-26T20:07:53;14.90;;;6.78;;
19691;SDS011;42748;50.016;19.890;2023-03-26T20:10:23;11.13;;;5.18;;
19691;SDS011;42748;50.016;19.890;2023-03-26T20:12:50;12.55;;;5.95;;
19691;SDS011;42748;50.016;19.890;2023-03-26T20:15:25;12.65;;;5.80;;
19691;SDS011;42748;50.016;19.890;2023-03-26T20:17:57;15.32;;;6.68;;
19691;SDS011;42748;50.016;19.890;2023-03-26T20:20:26;17.65;;;6.28;;
19691;SDS011;42748;50.016;19.890;2023-03-26T20:22:53;14.82;;;6.53;;
19691;SDS011;42748;50.016;19.890;2023-03-26T20:25:31;14.63;;;6.65;;
19691;SDS011;42748;50.016;19.890;2023-03-26T20:27:59;13.75;;;6.57;;
19691;SDS011;42748;50.016;19.890;2023-03-26T20:30:26;16.75;;;6.20;;
19691;SDS011;42748;50.016;19.890;2023-03-26T20:33:03;12.30;;;5.80;;
19691;SDS011;42748;50.016;19.890;2023-03-26T20:35:39;17.75;;;5.97;;
19691;SDS011;42748;50.016;19.890;2023-03-26T20:38:07;13.25;;;5.63;;
19691;SDS011;42748;50.016;19.890;2023-03-26T20:40:35;13.35;;;5.90;;
19691;SDS011;42748;50.016;19.890;2023-03-26T20:43:04;13.10;;;6.15;;
19691;SDS011;42748;50.016;19.890;2023-03-26T20:45:36;11.77;;;5.90;;
19691;SDS011;42748;50.016;19.890;2023-03-26T20:48:04;14.77;;;5.55;;
19691;SDS011;42748;50.016;19.890;2023-03-26T20:50:35;12.25;;;5.90;;
19691;SDS011;42748;50.016;19.890;2023-03-26T20:53:14;16.95;;;6.18;;
19691;SDS011;42748;50.016;19.890;2023-03-26T20:55:43;12.75;;;5.65;;
19691;SDS011;42748;50.016;19.890;2023-03-26T20:58:12;13.88;;;5.97;;
19691;SDS011;42748;50.016;19.890;2023-03-26T21:00:40;15.07;;;6.55;;
19691;SDS011;42748;50.016;19.890;2023-03-26T21:03:11;11.77;;;5.90;;
19691;SDS011;42748;50.016;19.890;2023-03-26T21:05:40;14.98;;;6.03;;
19691;SDS011;42748;50.016;19.890;2023-03-26T21:08:12;17.27;;;6.43;;
19691;SDS011;42748;50.016;19.890;2023-03-26T21:10:42;19.35;;;6.88;;
19691;SDS011;42748;50.016;19.890;2023-03-26T21:16:17;13.95;;;6.22;;
19691;SDS011;42748;50.016;19.890;2023-03-26T21:18:45;15.68;;;6.60;;
19691;SDS011;42748;50.016;19.890;2023-03-26T21:24:14;15.13;;;7.03;;
19691;SDS011;42748;50.016;19.890;2023-03-26T21:27:17;14.57;;;6.88;;
19691;SDS011;42748;50.016;19.890;2023-03-26T21:29:53;15.00;;;6.97;;
19691;SDS011;42748;50.016;19.890;2023-03-26T21:32:21;17.20;;;7.22;;
19691;SDS011;42748;50.016;19.890;2023-03-26T21:34:49;13.93;;;6.90;;
19691;SDS011;42748;50.016;19.890;2023-03-26T21:37:25;13.70;;;6.50;;
19691;SDS011;42748;50.016;19.890;2023-03-26T21:39:53;14.20;;;6.40;;
19691;SDS011;42748;50.016;19.890;2023-03-26T21:42:20;15.73;;;7.55;;
19691;SDS011;42748;50.016;19.890;2023-03-26T21:44:52;13.10;;;6.85;;
19691;SDS011;42748;50.016;19.890;2023-03-26T21:47:19;13.20;;;6.53;;
19691;SDS011;42748;50.016;19.890;2023-03-26T21:49:47;14.48;;;6.85;;
19691;SDS011;42748;50.016;19.890;2023-03-26T21:52:14;16.42;;;7.38;;
19691;SDS011;42748;50.016;19.890;2023-03-26T21:54:41;14.55;;;7.68;;
19691;SDS011;42748;50.016;19.890;2023-03-26T22:10:22;16.90;;;7.15;;
19691;SDS011;42748;50.016;19.890;2023-03-26T22:12:49;17.75;;;8.60;;
19691;SDS011;42748;50.016;19.890;2023-03-26T22:15:17;14.18;;;7.63;;
19691;SDS011;42748;50.016;19.890;2023-03-26T22:17:45;18.65;;;7.75;;
19691;SDS011;42748;50.016;19.890;2023-03-26T22:20:20;20.17;;;9.20;;
19691;SDS011;42748;50.016;19.890;2023-03-26T22:22:50;16.45;;;8.05;;
19691;SDS011;42748;50.016;19.890;2023-03-26T22:25:19;15.38;;;8.18;;
19691;SDS011;42748;50.016;19.890;2023-03-26T22:27:47;10.45;;;5.82;;
19691;SDS011;42748;50.016;19.890;2023-03-26T22:30:16;11.55;;;6.13;;
19691;SDS011;42748;50.016;19.890;2023-03-26T22:32:44;17.45;;;7.40;;
19691;SDS011;42748;50.016;19.890;2023-03-26T22:35:11;17.05;;;7.95;;
19691;SDS011;42748;50.016;19.890;2023-03-26T22:37:40;16.02;;;7.40;;
19691;SDS011;42748;50.016;19.890;2023-03-26T22:40:08;16.90;;;8.30;;